CCF9 weather

Scottsfield Airpark
Scottsfield, New Brunswick, Canada

Public forecast

Using degrees Celsius for public forecast. Weather courtesy of forecast.io.

METAR (pilot weather report)

Closest report is Fredericton Airport, 23.9 nm (44.4 km) ESE. Retrieved 2019/08/23 21:00 UTC (53 minutes ago):

CYFC 232100Z AUTO 27008KT 240V300 9SM SCT065 SCT081 23/11 A2981 RMK SLP095 DENSITY ALT 1100FT

TAF (pilot weather forecast)

Closest forecast is Fredericton Airport, 23.9 nm (44.4 km) ESE. Retrieved 2019/08/23 18:42 UTC (3 hours ago):

TAF CYFC 231738Z 2318/2406 29008KT P6SM SCT050 TEMPO 2320/2324 BKN050 RMK FCST BASED ON AUTO OBS. NXT FCST BY 240000Z